Time;durP1;ratioP1;P1;durP2;ratioP2;P2;SDS_P1;SDS_P2;PMS_P1;PMS_P2;Temp;Humidity;BMP_temperature;BMP_pressure;BME280_temperature;BME280_humidity;BME280_pressure;Samples;Min_cycle;Max_cycle;Signal;HPM_P1;HPM_P2
2023/06/12 08:10:02;;;;;;;;;;;;;;;;;;5073988;27;19974;-78
2023/06/12 08:12:28;;;;;;;;;;;;;;;;;;5051006;28;19939;-77
2023/06/12 08:14:54;;;;;;;;;;;;;;;;;;5052669;28;19928;-79
2023/06/12 08:17:20;;;;;;;;;;;;;;;;;;5086647;28;19935;-77
2023/06/12 08:19:46;;;;;;;;;;;;;;;;;;5090981;28;19998;-78
2023/06/12 08:22:12;;;;;;;;;;;;;;;;;;5055151;28;20351;-78
2023/06/12 08:24:41;;;;;;;;;;;;;;;;;;5090328;28;20012;-77
2023/06/12 08:27:07;;;;;;;;;;;;;;;;;;5055112;28;20051;-77
2023/06/12 08:29:34;;;;;;;;;;;;;;;;;;5090395;28;20397;-78
2023/06/12 08:32:00;;;;;;;;;;;;;;;;;;5087976;28;19929;-77
2023/06/12 08:34:26;;;;;;;;;;;;;;;;;;5089662;28;19933;-78
2023/06/12 08:36:52;;;;;;;;;;;;;;;;;;5090029;28;20045;-78
2023/06/12 08:39:18;;;;;;;;;;;;;;;;;;5054157;28;19931;-78
2023/06/12 08:41:44;;;;;;;;;;;;;;;;;;5089585;28;19932;-77
2023/06/12 08:44:10;;;;;;;;;;;;;;;;;;5091581;28;19952;-77
2023/06/12 08:46:36;;;;;;;;;;;;;;;;;;5089651;28;20379;-79
2023/06/12 08:49:02;;;;;;;;;;;;;;;;;;5038812;28;20357;-79
2023/06/12 08:51:28;;;;;;;;;;;;;;;;;;5056003;28;19982;-79
2023/06/12 08:53:54;;;;;;;;;;;;;;;;;;5090292;28;19933;-78
2023/06/12 08:56:21;;;;;;;;;;;;;;;;;;5089621;28;19933;-78
2023/06/12 08:58:47;;;;;;;;;;;;;;;;;;5090780;28;21154;-78
2023/06/12 09:01:14;;;;;;;;;;;;;;;;;;5089561;28;20299;-78
2023/06/12 09:03:40;;;;;;;;;;;;;;;;;;5054865;28;19928;-78
2023/06/12 09:06:06;;;;;;;;;;;;;;;;;;5088774;28;19998;-79
2023/06/12 09:08:34;;;;;;;;;;;;;;;;;;5089301;28;19971;-78
2023/06/12 09:11:00;;;;;;;;;;;;;;;;;;5088241;28;20666;-78
2023/06/12 15:04:39;;;;;;;;;;;;;;;;;;6155282;22;1963662;-77
2023/06/12 15:07:05;;;;;;;;;;;;;;;;;;6204156;23;19923;-77
2023/06/12 15:09:31;;;;;;;;;;;;;;;;;;6206231;23;19958;-76
2023/06/12 15:11:57;;;;;;;;;;;;;;;;;;6206457;23;19928;-77
2023/06/12 15:14:23;;;;;;;;;;;;;;;;;;6206171;23;19924;-77
2023/06/12 15:16:49;;;;;;;;;;;;;;;;;;6206129;23;19943;-77
2023/06/12 15:19:15;;;;;;;;;;;;;;;;;;6206731;23;19924;-76
2023/06/12 15:21:41;;;;;;;;;;;;;;;;;;6204890;23;20354;-74
2023/06/12 15:24:06;;;;;;;;;;;;;;;;;;6197473;23;20094;-75
2023/06/12 15:26:32;;;;;;;;;;;;;;;;;;6197002;23;19924;-75
2023/06/12 15:28:59;;;;;;;;;;;;;;;;;;6198763;23;19920;-76
2023/06/12 15:31:24;;;;;;;;;;;;;;;;;;6199346;23;19924;-77
2023/06/12 15:33:50;;;;;;;;;;;;;;;;;;6200975;23;19985;-77
2023/06/12 15:36:16;;;;;;;;;;;;;;;;;;6199859;23;19945;-77
2023/06/12 15:38:50;;;;;;;;;;;;;;;;;;6201324;23;19987;-77
2023/06/12 15:41:16;;;;;;;;;;;;;;;;;;6200147;23;19924;-77
2023/06/12 15:43:42;;;;;;;;;;;;;;;;;;6200339;23;19970;-76
2023/06/12 15:46:08;;;;;;;;;;;;;;;;;;6201373;23;20391;-77
2023/06/12 15:48:37;;;;;;;;;;;;;;;;;;6201322;23;19930;-77
2023/06/12 15:51:03;;;;;;;;;;;;;;;;;;6201838;23;19924;-77
2023/06/12 15:53:29;;;;;;;;;;;;;;;;;;6202189;23;19955;-76
2023/06/12 15:55:55;;;;;;;;;;;;;;;;;;6200828;23;19924;-77
2023/06/12 15:58:21;;;;;;;;;;;;;;;;;;6199559;23;19962;-77
2023/06/12 16:00:47;;;;;;;;;;;;;;;;;;6202293;23;19924;-77
2023/06/12 16:03:13;;;;;;;;;;;;;;;;;;6199560;23;19924;-77
2023/06/12 16:05:39;;;;;;;;;;;;;;;;;;6199235;23;19948;-77
2023/06/12 16:08:05;;;;;;;;;;;;;;;;;;6200309;23;19928;-77
2023/06/12 16:10:31;;;;;;;;;;;;;;;;;;6201989;23;19965;-77
2023/06/12 16:12:57;;;;;;;;;;;;;;;;;;6199273;23;19924;-77
2023/06/12 16:15:22;;;;;;;;;;;;;;;;;;6199261;23;19924;-76
2023/06/12 16:17:48;;;;;;;;;;;;;;;;;;6199792;23;19924;-77
2023/06/12 16:20:14;;;;;;;;;;;;;;;;;;6199238;23;19920;-77
2023/06/12 16:22:40;;;;;;;;;;;;;;;;;;6199549;23;19930;-77
2023/06/12 16:25:07;;;;;;;;;;;;;;;;;;6199345;23;20343;-76
2023/06/12 16:27:33;;;;;;;;;;;;;;;;;;6199889;23;19920;-77
2023/06/12 16:29:59;;;;;;;;;;;;;;;;;;6199373;23;19928;-77
2023/06/12 16:32:25;;;;;;;;;;;;;;;;;;6200075;23;19923;-76
2023/06/12 16:34:51;;;;;;;;;;;;;;;;;;6197833;23;20343;-76
2023/06/12 16:37:19;;;;;;;;;;;;;;;;;;6174582;23;19928;-76
2023/06/12 16:39:44;;;;;;;;;;;;;;;;;;6198876;23;19926;-76
2023/06/12 16:42:11;;;;;;;;;;;;;;;;;;6199252;23;19924;-77
2023/06/12 16:44:37;;;;;;;;;;;;;;;;;;6174143;23;20347;-76
2023/06/12 16:47:03;;;;;;;;;;;;;;;;;;6199840;23;20422;-77
2023/06/12 16:49:29;;;;;;;;;;;;;;;;;;6198497;23;19920;-77
2023/06/12 16:51:55;;;;;;;;;;;;;;;;;;6198999;23;20312;-77
2023/06/12 16:54:21;;;;;;;;;;;;;;;;;;6199432;23;20042;-76
2023/06/12 16:56:47;;;;;;;;;;;;;;;;;;6200104;23;19924;-77
2023/06/12 16:59:13;;;;;;;;;;;;;;;;;;6198384;23;19920;-77
2023/06/12 17:01:38;;;;;;;;;;;;;;;;;;6198991;23;19930;-76
2023/06/12 17:04:04;;;;;;;;;;;;;;;;;;6198535;23;19959;-76
2023/06/12 17:06:33;;;;;;;;;;;;;;;;;;6199822;23;20335;-76
